Time;durP1;ratioP1;P1;durP2;ratioP2;P2;SDS_P1;SDS_P2;PMS_P1;PMS_P2;Temp;Humidity;BMP_temperature;BMP_pressure;BME280_temperature;BME280_humidity;BME280_pressure;Samples;Min_cycle;Max_cycle;Signal;HPM_P1;HPM_P2
2022/07/09 00:02:16;;;;;;;9.73;5.18;;;;;;;;;;5118121;27;20414;-64
2022/07/09 00:04:42;;;;;;;7.40;5.07;;;;;;;;;;5090788;28;20064;-62
2022/07/09 00:07:08;;;;;;;7.25;4.80;;;;;;;;;;5109132;27;20143;-63
2022/07/09 00:09:35;;;;;;;7.38;4.93;;;;;;;;;;5117232;27;20052;-62
2022/07/09 00:12:01;;;;;;;10.30;6.15;;;;;;;;;;5104419;27;20054;-63
2022/07/09 00:14:29;;;;;;;8.57;5.40;;;;;;;;;;5094414;28;20207;-64
2022/07/09 00:16:55;;;;;;;8.23;5.10;;;;;;;;;;5094419;28;20554;-63
2022/07/09 00:19:22;;;;;;;9.40;5.65;;;;;;;;;;5112552;27;20144;-63
2022/07/09 00:21:48;;;;;;;6.93;5.57;;;;;;;;;;5112300;27;20136;-63
2022/07/09 00:24:14;;;;;;;9.20;6.43;;;;;;;;;;5117351;27;20146;-62
2022/07/09 00:26:41;;;;;;;8.68;5.60;;;;;;;;;;5113594;28;20561;-64
2022/07/09 00:29:07;;;;;;;8.43;5.47;;;;;;;;;;5109542;27;20547;-64
2022/07/09 00:31:33;;;;;;;10.80;6.95;;;;;;;;;;5111427;27;20043;-63
2022/07/09 00:34:00;;;;;;;10.85;6.55;;;;;;;;;;5113059;27;20056;-63
2022/07/09 00:36:26;;;;;;;10.50;6.65;;;;;;;;;;5117202;27;20059;-63
2022/07/09 00:38:52;;;;;;;9.93;6.10;;;;;;;;;;5112172;28;20198;-63
2022/07/09 00:41:19;;;;;;;8.75;6.30;;;;;;;;;;5108474;27;20056;-63
2022/07/09 00:43:50;;;;;;;9.85;5.88;;;;;;;;;;5110907;27;20059;-62
2022/07/09 00:46:18;;;;;;;12.48;6.45;;;;;;;;;;5112491;28;20048;-62
2022/07/09 00:48:45;;;;;;;9.10;6.75;;;;;;;;;;5111826;28;20055;-62
2022/07/09 00:51:12;;;;;;;9.27;6.60;;;;;;;;;;5111816;27;20044;-64
2022/07/09 00:53:39;;;;;;;10.13;6.53;;;;;;;;;;5112280;27;20047;-63
2022/07/09 00:56:05;;;;;;;10.07;6.90;;;;;;;;;;5112984;27;20078;-63
2022/07/09 00:58:32;;;;;;;10.30;7.10;;;;;;;;;;5117694;27;20482;-63
2022/07/09 01:01:00;;;;;;;10.85;7.18;;;;;;;;;;5119852;27;20103;-63
2022/07/09 01:03:26;;;;;;;10.45;6.97;;;;;;;;;;5108961;27;20175;-62
2022/07/09 01:05:53;;;;;;;9.70;7.07;;;;;;;;;;5093227;28;20055;-64
2022/07/09 01:08:19;;;;;;;11.48;7.32;;;;;;;;;;5120396;27;20061;-63
2022/07/09 01:10:47;;;;;;;12.55;7.93;;;;;;;;;;5111230;27;20062;-64
2022/07/09 01:13:13;;;;;;;13.40;8.88;;;;;;;;;;5111618;27;20142;-63
2022/07/09 01:15:39;;;;;;;14.27;8.90;;;;;;;;;;5105656;27;20474;-63
2022/07/09 01:18:09;;;;;;;13.18;9.52;;;;;;;;;;5109968;28;20176;-64
2022/07/09 01:20:35;;;;;;;12.05;9.95;;;;;;;;;;5103634;27;20056;-63
2022/07/09 01:23:02;;;;;;;15.50;11.40;;;;;;;;;;5109015;27;20051;-63
2022/07/09 01:25:34;;;;;;;11.07;9.98;;;;;;;;;;5114951;27;20517;-63
2022/07/09 01:28:00;;;;;;;14.30;11.02;;;;;;;;;;5112461;28;20078;-62
2022/07/09 01:30:27;;;;;;;15.77;11.73;;;;;;;;;;5113480;27;20070;-64
2022/07/09 01:32:54;;;;;;;17.48;12.23;;;;;;;;;;5110210;27;20056;-63
2022/07/09 01:35:21;;;;;;;15.85;11.80;;;;;;;;;;5110584;27;20062;-66
2022/07/09 01:37:47;;;;;;;18.50;11.68;;;;;;;;;;5108037;27;20044;-63
2022/07/09 01:40:13;;;;;;;17.23;12.02;;;;;;;;;;5110129;27;20058;-63
2022/07/09 01:42:40;;;;;;;16.92;12.70;;;;;;;;;;5111407;27;20062;-63
2022/07/09 01:45:06;;;;;;;17.65;12.52;;;;;;;;;;5107378;27;20169;-63
2022/07/09 01:47:33;;;;;;;17.00;12.30;;;;;;;;;;5108562;27;20056;-63
2022/07/09 01:49:59;;;;;;;16.13;12.25;;;;;;;;;;5111452;27;20070;-63
2022/07/09 01:52:26;;;;;;;17.55;12.95;;;;;;;;;;5111661;27;20058;-63
2022/07/09 01:54:52;;;;;;;17.38;13.27;;;;;;;;;;5099591;27;20052;-63
2022/07/09 01:57:18;;;;;;;18.40;12.70;;;;;;;;;;5105809;27;20055;-63
2022/07/09 01:59:44;;;;;;;18.02;12.57;;;;;;;;;;5109539;28;20987;-62
2022/07/09 02:02:11;;;;;;;14.27;12.48;;;;;;;;;;5110708;27;20083;-64
2022/07/09 02:04:38;;;;;;;18.05;13.25;;;;;;;;;;5111188;27;20553;-63
2022/07/09 02:07:04;;;;;;;18.80;14.23;;;;;;;;;;5119188;27;20051;-64
2022/07/09 02:09:30;;;;;;;22.23;14.15;;;;;;;;;;5109986;27;20578;-63
2022/07/09 02:11:57;;;;;;;20.25;14.70;;;;;;;;;;5104720;28;20049;-63
2022/07/09 02:14:23;;;;;;;18.90;15.25;;;;;;;;;;5101429;27;20052;-63
2022/07/09 02:16:49;;;;;;;24.75;14.57;;;;;;;;;;5108711;27;20048;-63
2022/07/09 02:19:15;;;;;;;22.50;15.73;;;;;;;;;;5104259;27;20052;-64
2022/07/09 02:21:42;;;;;;;23.85;14.50;;;;;;;;;;5110476;27;20056;-63
2022/07/09 02:24:08;;;;;;;20.52;14.40;;;;;;;;;;5111193;27;20470;-66
2022/07/09 02:26:34;;;;;;;21.50;15.10;;;;;;;;;;5110823;27;20135;-63
2022/07/09 02:29:01;;;;;;;20.33;15.15;;;;;;;;;;5110306;27;20944;-63
2022/07/09 02:31:28;;;;;;;20.60;15.63;;;;;;;;;;5110966;27;20044;-62
2022/07/09 02:33:54;;;;;;;19.90;16.00;;;;;;;;;;5110855;27;20056;-64
2022/07/09 02:36:21;;;;;;;22.90;15.43;;;;;;;;;;5110397;27;20319;-64
2022/07/09 02:38:47;;;;;;;18.02;14.90;;;;;;;;;;5110122;28;20052;-62
2022/07/09 02:41:13;;;;;;;22.17;16.10;;;;;;;;;;5109984;27;20057;-64
2022/07/09 02:43:43;;;;;;;20.00;15.43;;;;;;;;;;5109984;27;20162;-62
2022/07/09 02:46:09;;;;;;;19.45;16.17;;;;;;;;;;5110271;27;20070;-63
2022/07/09 02:48:36;;;;;;;18.60;15.38;;;;;;;;;;5096855;27;20488;-63
2022/07/09 02:51:04;;;;;;;21.48;16.50;;;;;;;;;;5107718;27;20045;-63
2022/07/09 02:53:30;;;;;;;21.75;16.75;;;;;;;;;;5092644;28;20087;-62
2022/07/09 02:55:56;;;;;;;22.02;17.05;;;;;;;;;;5107534;28;20061;-62
2022/07/09 02:58:23;;;;;;;24.20;16.88;;;;;;;;;;5090812;27;20063;-63
2022/07/09 03:00:49;;;;;;;20.10;16.27;;;;;;;;;;5104737;27;20052;-64
2022/07/09 03:03:16;;;;;;;25.95;16.10;;;;;;;;;;5107377;27;20131;-62
2022/07/09 03:05:42;;;;;;;19.42;16.30;;;;;;;;;;5115382;27;20164;-62
2022/07/09 03:08:08;;;;;;;25.10;17.27;;;;;;;;;;5119127;27;20126;-64
2022/07/09 03:10:35;;;;;;;21.88;17.58;;;;;;;;;;5112724;27;20048;-62
2022/07/09 03:13:01;;;;;;;21.58;17.23;;;;;;;;;;5111523;27;20048;-63
2022/07/09 03:15:28;;;;;;;21.70;17.00;;;;;;;;;;5114095;27;20052;-63
2022/07/09 03:17:54;;;;;;;22.48;16.83;;;;;;;;;;5113316;27;20177;-62
2022/07/09 03:20:20;;;;;;;19.00;16.35;;;;;;;;;;5114657;27;20052;-62
2022/07/09 03:22:47;;;;;;;23.35;16.75;;;;;;;;;;5112594;27;20048;-64
2022/07/09 03:25:13;;;;;;;20.45;17.08;;;;;;;;;;5108272;27;20135;-62
2022/07/09 03:27:39;;;;;;;22.67;17.10;;;;;;;;;;5110194;27;20479;-64
2022/07/09 03:30:06;;;;;;;21.40;17.02;;;;;;;;;;5112657;27;20052;-62
2022/07/09 03:32:32;;;;;;;23.70;18.05;;;;;;;;;;5112614;27;20051;-62
2022/07/09 03:34:59;;;;;;;25.08;18.98;;;;;;;;;;5103126;27;20474;-63
2022/07/09 03:37:26;;;;;;;23.55;18.25;;;;;;;;;;5113858;27;20040;-62
2022/07/09 03:39:52;;;;;;;21.23;17.55;;;;;;;;;;5111065;27;20147;-62
2022/07/09 03:42:18;;;;;;;27.75;19.42;;;;;;;;;;5112993;28;20064;-62
2022/07/09 03:44:45;;;;;;;23.75;18.83;;;;;;;;;;5107518;27;20081;-62
2022/07/09 03:47:11;;;;;;;24.75;18.17;;;;;;;;;;5101762;27;20056;-63
2022/07/09 03:49:37;;;;;;;24.58;18.75;;;;;;;;;;5110040;27;20075;-64
2022/07/09 03:52:04;;;;;;;23.33;19.20;;;;;;;;;;5096601;27;20139;-62
2022/07/09 03:54:44;;;;;;;21.25;17.63;;;;;;;;;;5099243;27;20056;-65
2022/07/09 03:57:11;;;;;;;27.38;18.27;;;;;;;;;;5109487;27;20048;-62
2022/07/09 03:59:38;;;;;;;26.77;19.50;;;;;;;;;;5105168;27;20055;-62
2022/07/09 04:02:05;;;;;;;25.20;20.27;;;;;;;;;;5112057;27;20048;-62
2022/07/09 04:04:38;;;;;;;28.45;20.70;;;;;;;;;;5113570;27;20114;-63
2022/07/09 04:07:04;;;;;;;23.50;20.00;;;;;;;;;;5109044;28;20052;-63
2022/07/09 04:09:31;;;;;;;27.52;20.67;;;;;;;;;;5103445;27;20048;-62
2022/07/09 04:11:58;;;;;;;28.15;19.95;;;;;;;;;;5097761;27;20480;-63
2022/07/09 04:14:24;;;;;;;29.60;20.83;;;;;;;;;;5111942;27;20050;-63
2022/07/09 04:16:51;;;;;;;27.67;20.63;;;;;;;;;;5112003;27;20044;-63
2022/07/09 04:19:17;;;;;;;24.65;19.55;;;;;;;;;;5117045;27;20059;-64
2022/07/09 04:21:43;;;;;;;26.77;20.92;;;;;;;;;;5118480;27;20062;-64
2022/07/09 04:24:10;;;;;;;24.60;19.17;;;;;;;;;;5111846;27;20135;-63
2022/07/09 04:26:36;;;;;;;30.98;20.80;;;;;;;;;;5112559;27;20533;-63
2022/07/09 04:29:02;;;;;;;26.63;20.65;;;;;;;;;;5112336;27;20044;-63
2022/07/09 04:31:29;;;;;;;29.80;22.20;;;;;;;;;;5111131;27;20083;-66
2022/07/09 04:33:55;;;;;;;26.80;20.55;;;;;;;;;;5111812;27;20499;-63
2022/07/09 04:36:21;;;;;;;26.92;20.33;;;;;;;;;;5111932;27;20618;-64
2022/07/09 04:38:48;;;;;;;24.55;19.02;;;;;;;;;;5112726;27;20058;-64
2022/07/09 04:41:14;;;;;;;28.27;20.65;;;;;;;;;;5110864;27;20052;-63
2022/07/09 04:43:41;;;;;;;25.95;19.88;;;;;;;;;;5112533;27;20044;-64
2022/07/09 04:46:07;;;;;;;28.10;20.30;;;;;;;;;;5105228;27;20092;-64
2022/07/09 04:48:35;;;;;;;27.05;18.77;;;;;;;;;;5092818;28;20539;-63
2022/07/09 04:51:02;;;;;;;29.80;20.83;;;;;;;;;;5102755;27;20462;-64
2022/07/09 04:53:28;;;;;;;24.13;18.95;;;;;;;;;;5111559;27;20495;-63
2022/07/09 04:55:55;;;;;;;24.88;19.52;;;;;;;;;;5110860;27;20135;-63
2022/07/09 04:58:21;;;;;;;21.75;18.02;;;;;;;;;;5103388;27;20058;-63
2022/07/09 05:00:47;;;;;;;23.30;18.65;;;;;;;;;;5092741;28;20052;-62
2022/07/09 05:03:14;;;;;;;25.88;18.02;;;;;;;;;;5111633;28;20059;-63
2022/07/09 05:05:40;;;;;;;23.95;17.70;;;;;;;;;;5105071;28;20133;-63
2022/07/09 05:08:15;;;;;;;20.42;17.20;;;;;;;;;;5108231;27;20179;-64
2022/07/09 05:10:41;;;;;;;20.83;16.13;;;;;;;;;;5103227;27;20135;-63
2022/07/09 05:13:08;;;;;;;23.55;17.20;;;;;;;;;;5110407;27;20059;-63
2022/07/09 05:15:34;;;;;;;21.67;18.20;;;;;;;;;;5111080;27;20123;-63
2022/07/09 05:18:00;;;;;;;22.23;16.58;;;;;;;;;;5111934;28;20054;-63
2022/07/09 05:20:27;;;;;;;21.05;16.77;;;;;;;;;;5109230;27;20579;-63
2022/07/09 05:22:53;;;;;;;17.45;15.55;;;;;;;;;;5091542;28;20049;-63
2022/07/09 05:25:20;;;;;;;19.77;16.42;;;;;;;;;;5108549;27;20171;-64
2022/07/09 05:27:46;;;;;;;22.10;15.52;;;;;;;;;;5114664;27;20044;-64
2022/07/09 05:30:14;;;;;;;18.33;14.48;;;;;;;;;;5113638;27;20166;-64
2022/07/09 05:32:45;;;;;;;18.23;14.50;;;;;;;;;;5115641;27;20067;-65
2022/07/09 05:35:12;;;;;;;21.60;14.93;;;;;;;;;;5106731;27;20432;-64
2022/07/09 05:37:42;;;;;;;17.60;14.55;;;;;;;;;;5107979;27;20076;-64
2022/07/09 05:40:08;;;;;;;15.98;13.18;;;;;;;;;;5101578;28;20056;-64
2022/07/09 05:42:35;;;;;;;14.80;12.55;;;;;;;;;;5107180;27;20056;-64
2022/07/09 05:45:01;;;;;;;15.60;13.38;;;;;;;;;;5107264;28;20056;-64
2022/07/09 05:47:27;;;;;;;15.45;12.10;;;;;;;;;;5095026;27;20056;-64
2022/07/09 05:49:53;;;;;;;12.98;11.45;;;;;;;;;;5111337;27;20483;-64
2022/07/09 05:52:20;;;;;;;13.25;10.65;;;;;;;;;;5111412;27;20058;-63
2022/07/09 05:54:46;;;;;;;12.65;10.27;;;;;;;;;;5111326;27;20056;-63
2022/07/09 05:57:12;;;;;;;13.40;10.65;;;;;;;;;;5109109;27;21249;-64
2022/07/09 05:59:39;;;;;;;13.18;10.68;;;;;;;;;;5101923;28;20121;-64
2022/07/09 06:02:06;;;;;;;10.45;9.10;;;;;;;;;;5109609;28;20415;-64
2022/07/09 06:04:33;;;;;;;12.48;9.50;;;;;;;;;;5110224;28;20059;-63
2022/07/09 06:06:59;;;;;;;11.10;8.70;;;;;;;;;;5106803;27;20105;-63
2022/07/09 06:09:25;;;;;;;10.13;8.57;;;;;;;;;;5107151;27;20044;-63
2022/07/09 06:11:51;;;;;;;11.32;8.02;;;;;;;;;;5109483;27;20146;-63
2022/07/09 06:14:19;;;;;;;9.48;7.18;;;;;;;;;;5103528;27;20139;-65
2022/07/09 06:16:54;;;;;;;8.73;6.38;;;;;;;;;;5103281;27;20084;-63
2022/07/09 06:19:20;;;;;;;11.52;6.38;;;;;;;;;;5111703;28;20616;-63
2022/07/09 06:21:47;;;;;;;5.93;5.20;;;;;;;;;;5110143;27;20080;-64
2022/07/09 06:24:13;;;;;;;6.95;5.45;;;;;;;;;;5103237;28;20559;-64
2022/07/09 06:26:40;;;;;;;7.28;5.50;;;;;;;;;;5105855;27;20070;-64
2022/07/09 06:29:06;;;;;;;9.77;7.68;;;;;;;;;;5105599;27;20517;-64
2022/07/09 06:31:32;;;;;;;10.73;8.55;;;;;;;;;;5104019;28;20057;-63
2022/07/09 06:33:59;;;;;;;10.88;7.88;;;;;;;;;;5109970;27;20048;-64
2022/07/09 06:36:26;;;;;;;9.93;7.55;;;;;;;;;;5107777;27;20050;-64
2022/07/09 06:41:37;;;;;;;10.73;8.88;;;;;;;;;;5110761;27;20068;-65
2022/07/09 06:44:04;;;;;;;8.48;7.53;;;;;;;;;;5110065;27;21055;-64
2022/07/09 06:46:30;;;;;;;8.93;7.22;;;;;;;;;;5114412;28;20131;-65
2022/07/09 06:48:56;;;;;;;8.85;7.85;;;;;;;;;;5112853;27;20076;-64
2022/07/09 06:51:23;;;;;;;10.13;7.10;;;;;;;;;;5114392;27;20054;-64
2022/07/09 06:53:49;;;;;;;10.20;7.28;;;;;;;;;;5109762;27;20480;-65
2022/07/09 06:56:15;;;;;;;14.38;8.43;;;;;;;;;;5099644;27;20526;-64
2022/07/09 06:58:41;;;;;;;9.02;7.53;;;;;;;;;;5110944;27;20056;-65
2022/07/09 07:01:08;;;;;;;12.85;9.40;;;;;;;;;;5110820;27;20054;-65
2022/07/09 07:03:34;;;;;;;10.25;8.25;;;;;;;;;;5112578;28;20060;-64
2022/07/09 07:06:00;;;;;;;10.75;8.20;;;;;;;;;;5116016;27;20052;-64
2022/07/09 07:08:27;;;;;;;11.43;9.75;;;;;;;;;;5121524;27;20910;-63
2022/07/09 07:10:53;;;;;;;12.70;10.13;;;;;;;;;;5111425;27;20055;-65
2022/07/09 07:13:19;;;;;;;13.93;10.68;;;;;;;;;;5107376;27;20990;-64
2022/07/09 07:15:49;;;;;;;13.40;9.70;;;;;;;;;;5111518;28;20044;-64
2022/07/09 07:18:16;;;;;;;10.68;9.30;;;;;;;;;;5108987;27;20555;-64
2022/07/09 07:20:43;;;;;;;11.50;10.18;;;;;;;;;;5100506;27;20084;-64
2022/07/09 07:23:09;;;;;;;11.93;10.75;;;;;;;;;;5112969;27;20052;-65
2022/07/09 07:25:35;;;;;;;13.35;10.77;;;;;;;;;;5114141;28;20143;-63
2022/07/09 07:28:03;;;;;;;17.48;11.48;;;;;;;;;;5113553;28;20052;-63
2022/07/09 07:30:32;;;;;;;17.55;8.75;;;;;;;;;;5112142;27;20135;-63
2022/07/09 07:32:59;;;;;;;12.32;9.48;;;;;;;;;;5114128;28;20150;-63
2022/07/09 07:35:25;;;;;;;12.48;9.85;;;;;;;;;;5102286;28;20056;-65
2022/07/09 07:37:52;;;;;;;12.90;10.38;;;;;;;;;;5104106;27;20052;-63
2022/07/09 07:40:18;;;;;;;12.57;9.65;;;;;;;;;;5111060;28;20044;-63
2022/07/09 07:42:44;;;;;;;13.80;9.52;;;;;;;;;;5113588;28;20056;-65
2022/07/09 07:45:11;;;;;;;10.02;8.98;;;;;;;;;;5113514;28;20052;-64
2022/07/09 07:47:37;;;;;;;10.55;8.70;;;;;;;;;;5110286;27;20045;-65
2022/07/09 07:50:03;;;;;;;9.50;7.07;;;;;;;;;;5111903;27;20446;-64
2022/07/09 07:52:30;;;;;;;8.85;6.20;;;;;;;;;;5107562;27;20056;-65
2022/07/09 07:54:56;;;;;;;7.57;6.75;;;;;;;;;;5100958;27;20055;-64
2022/07/09 07:57:22;;;;;;;12.55;7.10;;;;;;;;;;5113686;28;20058;-64
2022/07/09 07:59:49;;;;;;;7.20;6.10;;;;;;;;;;5112904;28;20048;-65
2022/07/09 08:02:15;;;;;;;7.28;5.10;;;;;;;;;;5115959;27;20151;-64
2022/07/09 08:04:42;;;;;;;13.13;6.38;;;;;;;;;;5113809;27;20131;-65
2022/07/09 08:07:08;;;;;;;8.15;6.68;;;;;;;;;;5111756;28;20048;-65
2022/07/09 08:09:34;;;;;;;7.07;5.63;;;;;;;;;;5104527;27;20182;-65
2022/07/09 08:12:01;;;;;;;7.18;6.47;;;;;;;;;;5112518;27;20052;-65
2022/07/09 08:14:27;;;;;;;8.02;5.20;;;;;;;;;;5110882;27;20050;-64
2022/07/09 08:16:53;;;;;;;7.28;3.80;;;;;;;;;;5094233;28;20056;-65
2022/07/09 08:19:20;;;;;;;3.35;2.80;;;;;;;;;;5117420;27;20495;-65
2022/07/09 08:21:46;;;;;;;7.55;3.40;;;;;;;;;;5126525;27;20139;-68
2022/07/09 08:24:12;;;;;;;5.93;3.30;;;;;;;;;;5093942;28;20047;-70
2022/07/09 08:26:39;;;;;;;4.57;2.97;;;;;;;;;;5112254;28;20052;-68
2022/07/09 08:29:05;;;;;;;4.25;3.08;;;;;;;;;;5111775;28;20487;-69
2022/07/09 08:31:31;;;;;;;5.97;2.50;;;;;;;;;;5112705;28;20146;-68
2022/07/09 08:33:57;;;;;;;6.55;2.75;;;;;;;;;;5094025;28;20140;-68
2022/07/09 08:36:24;;;;;;;4.53;2.88;;;;;;;;;;5101644;28;20499;-68
2022/07/09 08:38:50;;;;;;;4.03;2.40;;;;;;;;;;5111870;28;21007;-69
2022/07/09 08:41:19;;;;;;;4.10;2.35;;;;;;;;;;5109372;28;20050;-68
2022/07/09 08:43:51;;;;;;;5.45;2.70;;;;;;;;;;5111770;28;20138;-69
2022/07/09 08:46:18;;;;;;;4.05;2.40;;;;;;;;;;5093175;28;20048;-66
2022/07/09 08:48:45;;;;;;;4.07;2.22;;;;;;;;;;5091004;28;20206;-68
2022/07/09 08:51:13;;;;;;;2.60;2.30;;;;;;;;;;5093547;28;20074;-68
2022/07/09 08:53:41;;;;;;;3.83;1.88;;;;;;;;;;5112229;28;20400;-67
2022/07/09 08:56:08;;;;;;;2.50;1.80;;;;;;;;;;5111015;28;20051;-69
2022/07/09 08:58:34;;;;;;;1.92;1.83;;;;;;;;;;5110681;28;20059;-67
2022/07/09 09:01:04;;;;;;;2.15;1.90;;;;;;;;;;5109289;28;20055;-67
2022/07/09 09:03:30;;;;;;;3.65;1.83;;;;;;;;;;5111451;28;20060;-69
2022/07/09 09:06:04;;;;;;;3.47;2.25;;;;;;;;;;5110567;28;20110;-67
2022/07/09 09:08:35;;;;;;;3.25;1.70;;;;;;;;;;5111246;28;20052;-67
2022/07/09 09:11:03;;;;;;;2.72;1.60;;;;;;;;;;5109927;28;20059;-67
2022/07/09 09:13:30;;;;;;;3.17;2.13;;;;;;;;;;5110193;28;20045;-67
2022/07/09 09:16:07;;;;;;;2.78;1.77;;;;;;;;;;5093432;28;20106;-69
2022/07/09 09:18:40;;;;;;;3.35;1.73;;;;;;;;;;5111294;28;20056;-66
2022/07/09 09:21:07;;;;;;;3.55;1.80;;;;;;;;;;5093731;28;20048;-67
2022/07/09 09:23:48;;;;;;;4.15;2.25;;;;;;;;;;5128244;27;20060;-68
2022/07/09 09:26:15;;;;;;;3.83;2.53;;;;;;;;;;5111966;28;20060;-69
2022/07/09 09:28:45;;;;;;;2.78;1.48;;;;;;;;;;5112461;27;20139;-70
2022/07/09 09:31:22;;;;;;;3.67;1.45;;;;;;;;;;5112040;28;20170;-69
2022/07/09 09:33:50;;;;;;;4.43;1.77;;;;;;;;;;5111619;28;20440;-69
2022/07/09 09:36:30;;;;;;;2.53;1.45;;;;;;;;;;5095328;28;20924;-68
2022/07/09 09:39:16;;;;;;;2.13;1.52;;;;;;;;;;5110354;28;20519;-68
2022/07/09 09:41:44;;;;;;;2.33;1.33;;;;;;;;;;5106335;28;20056;-69
2022/07/09 09:44:11;;;;;;;2.33;1.55;;;;;;;;;;5106243;28;20083;-68
2022/07/09 09:46:38;;;;;;;4.18;1.90;;;;;;;;;;5093510;28;20139;-67
2022/07/09 09:49:10;;;;;;;2.75;1.30;;;;;;;;;;5104706;28;20511;-68
2022/07/09 09:51:47;;;;;;;2.92;1.20;;;;;;;;;;5103200;28;20058;-67
2022/07/09 09:54:14;;;;;;;2.40;1.05;;;;;;;;;;5111508;28;20055;-69
2022/07/09 09:56:40;;;;;;;0.90;0.90;;;;;;;;;;5111195;27;20092;-67
2022/07/09 09:59:09;;;;;;;2.30;1.00;;;;;;;;;;5111552;28;20062;-67
2022/07/09 10:01:35;;;;;;;1.70;1.00;;;;;;;;;;5099100;28;20049;-67
2022/07/09 10:04:01;;;;;;;1.42;0.80;;;;;;;;;;5097233;28;20052;-67
2022/07/09 10:06:35;;;;;;;3.35;0.90;;;;;;;;;;5121552;27;20639;-68
2022/07/09 10:09:03;;;;;;;1.25;0.65;;;;;;;;;;5125403;27;20043;-67
2022/07/09 10:11:42;;;;;;;2.50;1.08;;;;;;;;;;5114075;27;20048;-69
2022/07/09 10:14:29;;;;;;;2.25;1.13;;;;;;;;;;5111324;28;20076;-70
2022/07/09 10:16:56;;;;;;;2.75;1.05;;;;;;;;;;5113269;27;20052;-67
2022/07/09 10:19:27;;;;;;;1.13;0.93;;;;;;;;;;5114579;28;20056;-67
2022/07/09 10:21:54;;;;;;;2.85;1.02;;;;;;;;;;5114299;28;20149;-68
2022/07/09 10:24:27;;;;;;;2.15;1.10;;;;;;;;;;5124283;27;20051;-68
2022/07/09 10:27:05;;;;;;;1.75;1.27;;;;;;;;;;5114350;28;20131;-69
2022/07/09 10:29:32;;;;;;;2.70;1.00;;;;;;;;;;5114775;28;20048;-67
2022/07/09 10:31:58;;;;;;;4.35;1.65;;;;;;;;;;5114914;28;20147;-68
2022/07/09 10:34:30;;;;;;;2.95;1.10;;;;;;;;;;5114996;28;20049;-67
2022/07/09 10:36:58;;;;;;;4.22;1.13;;;;;;;;;;5096159;28;20135;-67
2022/07/09 10:39:24;;;;;;;3.08;0.90;;;;;;;;;;5114484;28;20063;-67
2022/07/09 10:41:59;;;;;;;3.08;1.25;;;;;;;;;;5113195;28;20064;-67
2022/07/09 10:44:35;;;;;;;3.92;0.98;;;;;;;;;;5123758;27;20143;-68
2022/07/09 10:47:05;;;;;;;3.05;1.15;;;;;;;;;;5112312;28;20058;-68
2022/07/09 10:49:35;;;;;;;1.60;0.82;;;;;;;;;;5096406;28;20411;-66
2022/07/09 10:52:02;;;;;;;2.05;0.85;;;;;;;;;;5115027;28;20565;-67
2022/07/09 10:54:32;;;;;;;2.92;1.13;;;;;;;;;;5114723;28;20056;-68
2022/07/09 10:56:59;;;;;;;2.08;0.88;;;;;;;;;;5114236;28;20189;-68
2022/07/09 10:59:25;;;;;;;3.28;0.90;;;;;;;;;;5099352;28;20057;-68
2022/07/09 11:01:52;;;;;;;2.50;1.10;;;;;;;;;;5111385;28;20059;-67
2022/07/09 11:04:24;;;;;;;2.78;1.10;;;;;;;;;;5096349;28;20052;-68
2022/07/09 11:06:56;;;;;;;3.28;1.00;;;;;;;;;;5113383;28;20044;-68
2022/07/09 11:09:27;;;;;;;1.73;0.98;;;;;;;;;;5129273;27;20549;-67
2022/07/09 11:11:54;;;;;;;2.30;0.85;;;;;;;;;;5111463;28;20131;-66
2022/07/09 11:14:20;;;;;;;1.85;1.00;;;;;;;;;;5113748;28;20047;-66
2022/07/09 11:16:53;;;;;;;4.20;1.38;;;;;;;;;;5113357;28;20079;-67
2022/07/09 11:19:19;;;;;;;3.35;1.30;;;;;;;;;;5112764;27;20052;-69
2022/07/09 11:21:46;;;;;;;2.38;1.20;;;;;;;;;;5110676;28;20048;-67
2022/07/09 11:24:14;;;;;;;3.85;1.45;;;;;;;;;;5119010;27;20217;-68
2022/07/09 11:26:40;;;;;;;2.20;0.90;;;;;;;;;;5110132;28;20052;-67
2022/07/09 11:29:11;;;;;;;3.10;1.17;;;;;;;;;;5111562;28;20138;-67
2022/07/09 11:31:45;;;;;;;1.90;1.00;;;;;;;;;;5113257;28;20487;-66
2022/07/09 11:34:12;;;;;;;3.40;1.00;;;;;;;;;;5096442;28;20935;-70
2022/07/09 11:36:39;;;;;;;2.67;0.90;;;;;;;;;;5104539;27;20508;-67
2022/07/09 11:39:06;;;;;;;3.33;1.35;;;;;;;;;;5091583;28;20136;-68
2022/07/09 11:41:39;;;;;;;4.57;1.02;;;;;;;;;;5101806;28;20070;-69
2022/07/09 11:44:05;;;;;;;3.70;1.27;;;;;;;;;;5111110;28;20501;-68
2022/07/09 11:46:32;;;;;;;3.10;1.00;;;;;;;;;;5112582;28;21017;-68
2022/07/09 11:48:58;;;;;;;3.78;0.95;;;;;;;;;;5110042;28;20530;-67
2022/07/09 11:51:34;;;;;;;3.58;1.40;;;;;;;;;;5106099;28;20094;-67
2022/07/09 11:54:00;;;;;;;5.25;1.48;;;;;;;;;;5111375;27;20082;-67
2022/07/09 11:56:27;;;;;;;1.67;1.00;;;;;;;;;;5113275;27;20136;-68
2022/07/09 11:58:54;;;;;;;5.63;1.40;;;;;;;;;;5112581;27;20139;-67
2022/07/09 12:01:22;;;;;;;2.20;0.90;;;;;;;;;;5113780;28;20056;-68
2022/07/09 12:03:49;;;;;;;1.95;0.95;;;;;;;;;;5087365;28;20136;-67
2022/07/09 12:06:16;;;;;;;1.20;0.70;;;;;;;;;;5107597;27;20094;-67
2022/07/09 12:08:43;;;;;;;3.72;1.08;;;;;;;;;;5112253;27;20048;-67
2022/07/09 12:11:09;;;;;;;3.55;1.23;;;;;;;;;;5111302;27;20052;-66
2022/07/09 12:13:35;;;;;;;2.67;1.05;;;;;;;;;;5113494;28;20139;-67
2022/07/09 12:16:02;;;;;;;4.05;1.48;;;;;;;;;;5112920;28;20538;-68
2022/07/09 12:18:28;;;;;;;5.82;1.15;;;;;;;;;;5112709;28;20084;-68
2022/07/09 12:20:56;;;;;;;3.17;1.20;;;;;;;;;;5109229;28;20052;-69
2022/07/09 12:23:25;;;;;;;4.15;1.27;;;;;;;;;;5110289;27;20135;-66
2022/07/09 12:25:52;;;;;;;3.33;1.17;;;;;;;;;;5109677;28;20052;-66
2022/07/09 12:28:18;;;;;;;3.95;1.10;;;;;;;;;;5104700;28;20052;-66
2022/07/09 12:30:44;;;;;;;6.93;1.60;;;;;;;;;;5111553;27;20046;-66
2022/07/09 12:33:11;;;;;;;3.55;1.35;;;;;;;;;;5114939;27;20052;-65
2022/07/09 12:35:37;;;;;;;4.68;1.00;;;;;;;;;;5120548;27;20052;-67
2022/07/09 12:38:03;;;;;;;3.55;1.13;;;;;;;;;;5108457;27;20147;-65
2022/07/09 12:40:31;;;;;;;6.07;1.35;;;;;;;;;;5111378;28;20131;-67
2022/07/09 12:42:57;;;;;;;5.50;1.30;;;;;;;;;;5098237;28;20060;-68
2022/07/09 12:45:23;;;;;;;3.63;1.08;;;;;;;;;;5108661;28;20059;-68
2022/07/09 12:47:50;;;;;;;5.47;1.35;;;;;;;;;;5110705;28;20048;-67
2022/07/09 12:50:16;;;;;;;3.58;1.02;;;;;;;;;;5108728;27;20066;-65
2022/07/09 12:52:43;;;;;;;2.78;1.10;;;;;;;;;;5112664;28;20572;-70
2022/07/09 12:55:09;;;;;;;4.43;1.35;;;;;;;;;;5093586;28;20171;-68
2022/07/09 12:57:37;;;;;;;6.13;1.17;;;;;;;;;;5102807;27;20540;-66
2022/07/09 13:00:03;;;;;;;2.63;1.00;;;;;;;;;;5107999;27;20052;-68
2022/07/09 13:02:30;;;;;;;3.28;1.60;;;;;;;;;;5111198;27;20565;-68
2022/07/09 13:04:56;;;;;;;7.47;1.17;;;;;;;;;;5111401;27;20092;-67
2022/07/09 13:07:22;;;;;;;3.63;1.13;;;;;;;;;;5110372;27;20197;-66
2022/07/09 13:09:49;;;;;;;2.72;1.10;;;;;;;;;;5113156;27;20048;-67
2022/07/09 13:12:16;;;;;;;5.07;1.40;;;;;;;;;;5096559;28;20070;-66
2022/07/09 13:14:42;;;;;;;2.78;1.02;;;;;;;;;;5117512;27;20048;-66
2022/07/09 13:17:08;;;;;;;3.92;1.05;;;;;;;;;;5111657;27;20056;-65
2022/07/09 13:19:55;;;;;;;2.65;1.00;;;;;;;;;;5091089;28;20419;-65
2022/07/09 13:22:21;;;;;;;1.50;1.08;;;;;;;;;;5107847;27;20499;-67
2022/07/09 13:24:47;;;;;;;2.53;0.85;;;;;;;;;;5115153;27;20152;-67
2022/07/09 13:27:14;;;;;;;3.05;0.90;;;;;;;;;;5109557;27;20059;-67
2022/07/09 13:29:40;;;;;;;6.60;1.65;;;;;;;;;;5111753;27;20062;-65
2022/07/09 13:32:07;;;;;;;7.18;2.00;;;;;;;;;;5118647;27;20048;-65
2022/07/09 13:34:33;;;;;;;6.05;1.50;;;;;;;;;;5115712;27;20159;-66
2022/07/09 13:37:00;;;;;;;5.18;2.10;;;;;;;;;;5111924;27;20143;-63
2022/07/09 13:39:26;;;;;;;5.55;1.60;;;;;;;;;;5107515;27;20487;-66
2022/07/09 13:41:52;;;;;;;6.05;1.42;;;;;;;;;;5109279;27;20058;-66
2022/07/09 13:44:19;;;;;;;8.45;1.90;;;;;;;;;;5089052;28;20147;-65
2022/07/09 13:46:45;;;;;;;10.85;1.65;;;;;;;;;;5102470;27;20044;-66
2022/07/09 13:49:11;;;;;;;4.57;1.30;;;;;;;;;;5106333;27;20079;-66
2022/07/09 13:51:38;;;;;;;7.32;1.58;;;;;;;;;;5111972;27;20489;-65
2022/07/09 13:54:04;;;;;;;6.00;1.67;;;;;;;;;;5112295;27;20056;-64
2022/07/09 13:56:31;;;;;;;6.53;1.63;;;;;;;;;;5110136;27;20135;-65
2022/07/09 13:58:57;;;;;;;5.05;1.85;;;;;;;;;;5110709;27;20134;-65
2022/07/09 14:01:23;;;;;;;4.32;1.42;;;;;;;;;;5111639;27;20610;-65
2022/07/09 14:03:49;;;;;;;6.18;1.65;;;;;;;;;;5094651;28;20138;-64
2022/07/09 14:06:16;;;;;;;3.47;1.20;;;;;;;;;;5110128;27;20075;-65
2022/07/09 14:09:03;;;;;;;3.65;1.35;;;;;;;;;;5109235;27;20048;-65
2022/07/09 14:11:29;;;;;;;5.50;1.42;;;;;;;;;;5108895;27;20051;-64
2022/07/09 14:13:57;;;;;;;6.38;1.42;;;;;;;;;;5111269;27;20329;-66
2022/07/09 14:16:24;;;;;;;3.72;1.30;;;;;;;;;;5106869;27;20109;-63
2022/07/09 14:18:51;;;;;;;4.47;1.38;;;;;;;;;;5111432;27;20568;-65
2022/07/09 14:21:18;;;;;;;5.22;1.20;;;;;;;;;;5104681;27;20120;-64
2022/07/09 14:23:47;;;;;;;4.97;1.60;;;;;;;;;;5107884;27;20048;-66
2022/07/09 14:26:15;;;;;;;6.35;1.52;;;;;;;;;;5091810;28;20064;-64
2022/07/09 14:28:41;;;;;;;2.97;1.13;;;;;;;;;;5107316;27;20056;-65
2022/07/09 14:31:08;;;;;;;8.07;1.27;;;;;;;;;;5107970;27;20055;-66
2022/07/09 14:33:34;;;;;;;3.80;1.00;;;;;;;;;;5117122;27;20105;-66
2022/07/09 14:36:01;;;;;;;2.75;1.10;;;;;;;;;;5111326;27;20047;-67
2022/07/09 14:38:27;;;;;;;5.38;1.13;;;;;;;;;;5098671;27;20578;-65